createdAt,value
2023-04-20T00:00:27.534Z,7.31
2023-04-20T00:02:54.430Z,7.07
2023-04-20T00:05:21.461Z,7.20
2023-04-20T00:07:48.554Z,6.93
2023-04-20T00:10:15.631Z,7.09
2023-04-20T00:12:42.751Z,7.02
2023-04-20T00:15:09.726Z,7.25
2023-04-20T00:17:38.527Z,6.79
2023-04-20T00:20:07.848Z,7.18
2023-04-20T00:22:35.953Z,7.04
2023-04-20T00:25:03.133Z,7.21
2023-04-20T00:27:29.676Z,7.15
2023-04-20T00:29:56.541Z,7.09
2023-04-20T00:32:23.560Z,7.09
2023-04-20T00:34:50.305Z,7.07
2023-04-20T00:37:16.970Z,6.75
2023-04-20T00:39:43.607Z,6.11
2023-04-20T00:42:42.304Z,6.83
2023-04-20T00:45:09.766Z,6.79
2023-04-20T00:47:37.234Z,6.79
2023-04-20T00:50:04.515Z,6.87
2023-04-20T00:52:32.223Z,6.28
2023-04-20T00:54:58.964Z,6.17
2023-04-20T00:57:27.475Z,6.67
2023-04-20T00:59:54.145Z,6.81
2023-04-20T01:02:22.782Z,6.69
2023-04-20T01:04:49.813Z,6.70
2023-04-20T01:07:16.416Z,6.71
2023-04-20T01:09:43.148Z,6.08
2023-04-20T01:12:11.236Z,6.38
2023-04-20T01:14:37.926Z,6.58
2023-04-20T01:17:05.829Z,5.80
2023-04-20T01:19:33.553Z,6.41
2023-04-20T01:22:02.224Z,4.92
2023-04-20T01:24:29.044Z,6.16
2023-04-20T01:26:56.349Z,6.34
2023-04-20T01:29:23.031Z,6.22
2023-04-20T01:31:49.768Z,6.25
2023-04-20T01:34:17.576Z,6.29
2023-04-20T01:36:45.628Z,6.28
2023-04-20T01:39:12.698Z,5.77
2023-04-20T01:41:39.838Z,6.23
2023-04-20T01:44:06.502Z,6.41
2023-04-20T01:46:33.229Z,6.37
2023-04-20T01:48:59.831Z,6.41
2023-04-20T01:51:26.451Z,6.35
2023-04-20T01:53:53.914Z,5.06
2023-04-20T01:56:20.610Z,6.31
2023-04-20T01:58:47.289Z,6.20
2023-04-20T02:01:14.007Z,6.27
2023-04-20T02:03:41.065Z,6.50
2023-04-20T02:06:08.069Z,6.74
2023-04-20T02:08:34.966Z,5.56
2023-04-20T02:11:01.801Z,6.78
2023-04-20T02:13:28.398Z,6.73
2023-04-20T02:15:55.493Z,6.93
2023-04-20T02:18:22.839Z,6.96
2023-04-20T02:20:49.590Z,6.94
2023-04-20T02:23:16.404Z,7.16
2023-04-20T02:25:43.032Z,6.20
2023-04-20T02:28:11.650Z,7.00
2023-04-20T02:30:38.628Z,7.11
2023-04-20T02:33:05.269Z,6.99
2023-04-20T02:35:32.118Z,6.80
2023-04-20T02:37:58.799Z,7.20
2023-04-20T02:40:25.571Z,7.10
2023-04-20T02:42:53.851Z,7.25
2023-04-20T02:45:20.514Z,6.73
2023-04-20T02:47:47.335Z,7.28
2023-04-20T02:50:15.089Z,7.22
2023-04-20T02:53:00.661Z,7.67
2023-04-20T02:55:28.493Z,7.78
2023-04-20T02:57:58.876Z,7.63
2023-04-20T03:00:48.190Z,7.64
2023-04-20T03:03:15.373Z,8.00
2023-04-20T03:05:42.425Z,8.04
2023-04-20T03:08:09.574Z,8.17
2023-04-20T03:10:36.302Z,8.21
2023-04-20T03:13:11.620Z,8.25
2023-04-20T03:15:50.760Z,7.84
2023-04-20T03:19:00.746Z,8.30
2023-04-20T03:21:28.584Z,8.35
2023-04-20T03:23:55.457Z,8.36
2023-04-20T03:26:26.733Z,8.50
2023-04-20T03:29:15.307Z,8.55
2023-04-20T03:31:42.160Z,8.38
2023-04-20T03:34:12.382Z,8.58
2023-04-20T03:36:40.099Z,8.09
2023-04-20T03:39:07.026Z,8.08
2023-04-20T03:41:33.718Z,8.39
2023-04-20T03:44:00.296Z,8.57
2023-04-20T03:46:27.666Z,8.57
2023-04-20T03:48:54.382Z,8.59
2023-04-20T03:51:21.185Z,8.07
2023-04-20T03:53:47.933Z,8.60
2023-04-20T03:56:14.636Z,7.96
2023-04-20T03:58:42.072Z,8.31
2023-04-20T04:01:15.775Z,8.59
2023-04-20T04:03:46.968Z,8.53
2023-04-20T04:06:41.203Z,8.59
2023-04-20T04:09:08.905Z,8.60
2023-04-20T04:11:36.113Z,8.36
2023-04-20T04:14:05.172Z,8.09
2023-04-20T04:16:32.831Z,7.97
2023-04-20T04:18:59.565Z,8.47
2023-04-20T04:21:27.638Z,8.63
2023-04-20T04:24:00.003Z,8.41
2023-04-20T04:26:36.245Z,8.46
2023-04-20T04:29:04.826Z,8.11
2023-04-20T04:31:32.970Z,8.37
2023-04-20T04:34:07.763Z,8.14
2023-04-20T04:36:40.540Z,8.55
2023-04-20T04:39:10.962Z,8.49
2023-04-20T04:41:41.034Z,8.57
2023-04-20T04:44:22.217Z,8.51
2023-04-20T04:46:49.046Z,8.54
2023-04-20T04:49:16.224Z,8.34
2023-04-20T04:51:43.051Z,8.56
2023-04-20T04:54:11.355Z,8.58
2023-04-20T04:56:38.003Z,8.48
2023-04-20T04:59:04.798Z,8.47
2023-04-20T05:01:31.408Z,8.53
2023-04-20T05:03:58.258Z,8.52
2023-04-20T05:06:25.453Z,8.70
2023-04-20T05:08:52.116Z,8.61
2023-04-20T05:11:19.110Z,8.77
2023-04-20T05:13:45.834Z,8.73
2023-04-20T05:16:12.522Z,8.71
2023-04-20T05:18:39.179Z,8.73
2023-04-20T05:21:05.819Z,8.72
2023-04-20T05:23:32.855Z,8.72
2023-04-20T05:25:59.506Z,8.72
2023-04-20T05:28:26.765Z,8.70
2023-04-20T05:30:55.278Z,8.88
2023-04-20T05:33:22.512Z,8.91
2023-04-20T05:35:52.029Z,8.92
2023-04-20T05:38:18.610Z,8.85
2023-04-20T05:40:45.102Z,8.95
2023-04-20T05:43:11.712Z,8.99
2023-04-20T05:45:39.443Z,9.11
2023-04-20T05:48:06.292Z,9.01
2023-04-20T05:50:33.053Z,9.21
2023-04-20T05:52:59.713Z,9.36
2023-04-20T05:55:26.918Z,9.61
2023-04-20T05:57:53.587Z,9.63
2023-04-20T06:00:21.179Z,9.83
2023-04-20T06:02:48.802Z,9.85
2023-04-20T06:05:15.711Z,9.63
2023-04-20T06:07:42.383Z,9.53
2023-04-20T06:10:09.662Z,9.49
2023-04-20T06:12:36.407Z,9.31
2023-04-20T06:15:04.793Z,9.51
2023-04-20T06:17:31.563Z,9.08
2023-04-20T06:19:58.097Z,9.67
2023-04-20T06:22:24.676Z,9.43
2023-04-20T06:24:51.281Z,9.54
2023-04-20T06:27:17.828Z,9.45
2023-04-20T06:29:44.476Z,9.20
2023-04-20T06:32:11.423Z,9.74
2023-04-20T06:34:38.267Z,9.92
2023-04-20T06:37:07.498Z,9.88
2023-04-20T06:39:35.350Z,9.69
2023-04-20T06:42:02.696Z,9.74
2023-04-20T06:44:29.326Z,9.75
2023-04-20T06:46:56.079Z,9.65
2023-04-20T06:49:22.675Z,9.58
2023-04-20T06:51:49.286Z,8.68
2023-04-20T06:54:16.791Z,9.49
2023-04-20T06:56:43.531Z,9.62
2023-04-20T06:59:10.161Z,9.70
2023-04-20T07:01:36.738Z,9.49
2023-04-20T07:04:03.586Z,9.61
2023-04-20T07:06:30.580Z,9.70
2023-04-20T07:08:57.247Z,9.74
2023-04-20T07:11:24.658Z,10.06
2023-04-20T07:13:51.313Z,10.51
2023-04-20T07:16:17.864Z,10.80
2023-04-20T07:18:44.524Z,10.79
2023-04-20T07:21:11.115Z,11.19
2023-04-20T07:23:37.635Z,11.66
2023-04-20T07:26:05.433Z,11.87
2023-04-20T07:28:32.770Z,12.10
2023-04-20T07:30:59.509Z,12.26
2023-04-20T07:33:26.321Z,12.22
2023-04-20T07:35:52.940Z,12.47
2023-04-20T07:38:19.566Z,11.94
2023-04-20T07:40:47.248Z,11.95
2023-04-20T07:43:13.905Z,11.79
2023-04-20T07:45:41.775Z,11.57
2023-04-20T07:48:12.370Z,11.33
2023-04-20T07:50:39.252Z,11.68
2023-04-20T07:53:07.158Z,12.04
2023-04-20T07:55:33.803Z,11.91
2023-04-20T07:58:00.858Z,11.98
2023-04-20T08:00:27.539Z,12.38
2023-04-20T08:02:54.256Z,12.54
2023-04-20T08:05:21.374Z,12.35
2023-04-20T08:07:48.464Z,12.07
2023-04-20T08:10:15.214Z,11.65
2023-04-20T08:12:41.853Z,11.88
2023-04-20T08:15:09.434Z,11.81
2023-04-20T08:17:36.209Z,12.00
2023-04-20T08:20:04.713Z,12.18
2023-04-20T08:22:33.577Z,12.54
2023-04-20T08:25:00.220Z,12.69
2023-04-20T08:27:29.620Z,12.31
2023-04-20T08:29:56.632Z,11.79
2023-04-20T08:32:26.484Z,11.78
2023-04-20T08:34:54.022Z,11.76
2023-04-20T08:37:21.274Z,11.83
2023-04-20T08:39:47.910Z,11.39
2023-04-20T08:42:16.786Z,12.19
2023-04-20T08:44:43.389Z,12.36
2023-04-20T08:47:11.931Z,12.12
2023-04-20T08:49:42.122Z,11.61
2023-04-20T08:52:11.032Z,11.64
2023-04-20T08:54:45.795Z,11.81
2023-04-20T08:57:12.697Z,11.82
2023-04-20T08:59:39.391Z,11.95
2023-04-20T09:02:14.002Z,11.86
2023-04-20T09:04:41.084Z,11.99
2023-04-20T09:07:18.422Z,11.99
2023-04-20T09:09:56.248Z,11.89
2023-04-20T09:12:24.645Z,11.87
2023-04-20T09:14:52.058Z,11.67
2023-04-20T09:17:31.697Z,11.67
2023-04-20T09:19:58.355Z,11.47
2023-04-20T09:22:33.615Z,11.36
2023-04-20T09:25:01.189Z,11.17
2023-04-20T09:27:27.909Z,11.20
2023-04-20T09:30:03.674Z,11.23
2023-04-20T09:32:30.336Z,11.46
2023-04-20T09:34:57.044Z,11.50
2023-04-20T09:37:24.083Z,11.36
2023-04-20T09:39:51.079Z,11.52
2023-04-20T09:42:17.936Z,11.59
2023-04-20T09:44:44.724Z,11.58
2023-04-20T09:47:21.436Z,11.41
2023-04-20T09:49:48.036Z,11.92
2023-04-20T09:52:18.722Z,12.06
2023-04-20T09:54:46.015Z,12.64
2023-04-20T09:57:13.969Z,12.31
2023-04-20T09:59:43.611Z,12.26
2023-04-20T10:02:14.316Z,12.30
2023-04-20T10:04:57.893Z,11.40
2023-04-20T10:07:26.451Z,11.76
2023-04-20T10:10:10.052Z,11.70
2023-04-20T10:12:57.257Z,11.55
2023-04-20T10:15:27.197Z,11.14
2023-04-20T10:17:54.091Z,11.27
2023-04-20T10:20:23.895Z,11.18
2023-04-20T10:22:54.933Z,11.32
2023-04-20T10:25:26.905Z,13.28
2023-04-20T10:27:59.047Z,14.00
2023-04-20T10:30:26.893Z,13.96
2023-04-20T10:33:04.429Z,13.71
2023-04-20T10:35:51.611Z,13.30
2023-04-20T10:38:34.892Z,13.19
2023-04-20T10:41:09.185Z,13.31
2023-04-20T10:43:36.028Z,14.18
2023-04-20T10:46:02.836Z,15.10
2023-04-20T10:48:29.521Z,15.58
2023-04-20T10:50:56.346Z,15.26
2023-04-20T10:53:23.964Z,14.70
2023-04-20T10:56:00.583Z,14.38
2023-04-20T10:58:27.475Z,13.61
2023-04-20T11:01:01.644Z,13.50
2023-04-20T11:03:30.418Z,14.22
2023-04-20T11:06:01.211Z,14.93
2023-04-20T11:08:41.025Z,14.33
2023-04-20T11:11:21.648Z,14.35
2023-04-20T11:13:48.609Z,14.03
2023-04-20T11:16:17.003Z,13.92
2023-04-20T11:18:54.288Z,13.39
2023-04-20T11:21:22.384Z,13.36
2023-04-20T11:23:50.010Z,12.89
2023-04-20T11:26:17.072Z,12.58
2023-04-20T11:28:56.224Z,12.50
2023-04-20T11:31:23.313Z,12.36
2023-04-20T11:33:51.311Z,12.19
2023-04-20T11:36:19.496Z,12.58
2023-04-20T11:38:46.199Z,12.25
2023-04-20T11:41:12.882Z,12.41
2023-04-20T11:43:39.490Z,12.61
2023-04-20T11:46:14.656Z,12.52
2023-04-20T11:48:41.538Z,12.30
2023-04-20T11:51:08.367Z,11.94
2023-04-20T11:53:34.913Z,11.78
2023-04-20T11:56:01.571Z,11.46
2023-04-20T11:58:28.231Z,11.19
2023-04-20T12:00:54.954Z,11.19
2023-04-20T12:03:22.365Z,12.25
2023-04-20T12:05:49.312Z,12.92
2023-04-20T12:08:17.495Z,12.86
2023-04-20T12:10:44.702Z,12.96
2023-04-20T12:13:11.421Z,12.37
2023-04-20T12:15:37.956Z,12.14
2023-04-20T12:18:04.713Z,12.66
2023-04-20T12:20:32.519Z,13.09
2023-04-20T12:22:59.273Z,13.18
2023-04-20T12:25:25.874Z,12.99
2023-04-20T12:27:52.548Z,13.01
2023-04-20T12:30:19.337Z,13.11
2023-04-20T12:32:46.149Z,13.26
2023-04-20T12:35:12.793Z,13.17
2023-04-20T12:37:39.453Z,12.96
2023-04-20T12:40:07.209Z,13.00
2023-04-20T12:42:33.906Z,12.57
2023-04-20T12:45:00.595Z,12.45
2023-04-20T12:47:27.268Z,12.37
2023-04-20T12:49:55.021Z,12.72
2023-04-20T12:52:21.888Z,12.80
2023-04-20T12:54:48.538Z,13.66
2023-04-20T12:57:15.385Z,14.25
2023-04-20T12:59:42.872Z,14.29
2023-04-20T13:02:10.969Z,14.17
2023-04-20T13:04:37.739Z,14.75
2023-04-20T13:07:04.319Z,15.08
2023-04-20T13:09:30.947Z,15.34
2023-04-20T13:11:57.982Z,15.66
2023-04-20T13:14:25.758Z,15.80
2023-04-20T13:16:55.172Z,16.19
2023-04-20T13:19:22.331Z,16.84
2023-04-20T13:21:48.964Z,16.56
2023-04-20T13:24:15.757Z,16.42
2023-04-20T13:26:42.684Z,16.77
2023-04-20T13:29:09.299Z,16.21
2023-04-20T13:31:36.917Z,15.67
2023-04-20T13:34:03.715Z,15.21
2023-04-20T13:36:31.472Z,14.81
2023-04-20T13:38:58.161Z,15.00
2023-04-20T13:41:24.866Z,15.34
2023-04-20T13:43:51.526Z,15.10
2023-04-20T13:46:19.899Z,15.37
2023-04-20T13:48:46.626Z,16.09
2023-04-20T13:51:13.171Z,16.70
2023-04-20T13:53:39.800Z,17.27
2023-04-20T13:56:06.526Z,16.75
2023-04-20T13:58:33.148Z,16.72
2023-04-20T14:00:59.742Z,17.44
2023-04-20T14:03:26.749Z,18.95
2023-04-20T14:05:53.594Z,19.91
2023-04-20T14:08:20.688Z,21.22
2023-04-20T14:10:47.316Z,21.25
2023-04-20T14:13:14.050Z,19.91
2023-04-20T14:15:41.481Z,19.11
2023-04-20T14:18:08.258Z,19.94
2023-04-20T14:20:35.081Z,19.43
2023-04-20T14:23:01.747Z,19.69
2023-04-20T14:25:28.461Z,19.93
2023-04-20T14:27:55.011Z,19.01
2023-04-20T14:30:21.983Z,18.39
2023-04-20T14:32:59.724Z,17.80
2023-04-20T14:35:28.313Z,19.22
2023-04-20T14:37:55.028Z,20.09
2023-04-20T14:40:22.079Z,20.14
2023-04-20T14:42:48.732Z,18.97
2023-04-20T14:45:15.505Z,17.65
2023-04-20T14:47:42.188Z,16.91
2023-04-20T14:50:09.799Z,17.18
2023-04-20T14:52:37.380Z,17.20
2023-04-20T14:55:04.394Z,16.07
2023-04-20T14:57:31.978Z,15.41
2023-04-20T14:59:58.583Z,14.93
2023-04-20T15:02:25.525Z,14.26
2023-04-20T15:04:52.414Z,14.44
2023-04-20T15:07:19.247Z,16.48
2023-04-20T15:09:46.342Z,18.34
2023-04-20T15:12:13.059Z,19.47
2023-04-20T15:14:39.720Z,20.36
2023-04-20T15:17:06.365Z,19.77
2023-04-20T15:19:32.956Z,19.11
2023-04-20T15:21:59.618Z,18.30
2023-04-20T15:24:26.295Z,17.20
2023-04-20T15:26:53.019Z,16.14
2023-04-20T15:29:19.672Z,15.15
2023-04-20T15:31:46.821Z,15.06
2023-04-20T15:34:15.426Z,14.85
2023-04-20T15:36:43.520Z,14.27
2023-04-20T15:39:10.172Z,16.79
2023-04-20T15:41:36.767Z,17.83
2023-04-20T15:44:03.416Z,18.94
2023-04-20T15:46:30.106Z,18.92
2023-04-20T15:48:56.857Z,19.48
2023-04-20T15:51:24.826Z,20.51
2023-04-20T15:53:51.730Z,21.23
2023-04-20T15:56:18.689Z,21.89
2023-04-20T15:58:46.239Z,21.55
2023-04-20T16:01:12.924Z,20.31
2023-04-20T16:03:39.888Z,17.99
2023-04-20T16:06:07.152Z,16.69
2023-04-20T16:08:33.851Z,15.88
2023-04-20T16:11:00.613Z,15.70
2023-04-20T16:13:27.346Z,16.01
2023-04-20T16:15:55.616Z,18.11
2023-04-20T16:18:22.291Z,18.81
2023-04-20T16:20:48.942Z,19.93
2023-04-20T16:23:15.849Z,20.36
2023-04-20T16:25:42.455Z,20.67
2023-04-20T16:28:09.110Z,19.40
2023-04-20T16:30:36.980Z,17.96
2023-04-20T16:33:03.957Z,16.88
2023-04-20T16:35:32.225Z,16.20
2023-04-20T16:37:58.879Z,15.74
2023-04-20T16:40:26.309Z,15.35
2023-04-20T16:42:53.006Z,14.93
2023-04-20T16:45:19.617Z,15.34
2023-04-20T16:47:46.576Z,15.59
2023-04-20T16:50:19.140Z,15.67
2023-04-20T16:52:49.775Z,14.77
2023-04-20T16:55:16.398Z,15.57
2023-04-20T16:57:43.053Z,15.55
2023-04-20T17:00:10.868Z,16.09
2023-04-20T17:02:37.892Z,16.27
2023-04-20T17:05:07.161Z,15.74
2023-04-20T17:07:33.787Z,15.17
2023-04-20T17:10:00.480Z,15.11
2023-04-20T17:12:27.227Z,14.95
2023-04-20T17:14:55.141Z,14.36
2023-04-20T17:17:21.758Z,14.67
2023-04-20T17:19:48.308Z,14.74
2023-04-20T17:22:14.937Z,14.68
2023-04-20T17:24:41.522Z,14.73
2023-04-20T17:27:08.231Z,14.50
2023-04-20T17:29:38.258Z,14.84
2023-04-20T17:32:05.903Z,15.13
2023-04-20T17:34:32.989Z,14.92
2023-04-20T17:36:59.623Z,14.21
2023-04-20T17:39:26.612Z,13.35
2023-04-20T17:41:53.296Z,12.36
2023-04-20T17:44:20.292Z,12.04
2023-04-20T17:46:47.168Z,12.06
2023-04-20T17:49:13.720Z,11.70
2023-04-20T17:51:40.284Z,12.01
2023-04-20T17:54:07.686Z,11.97
2023-04-20T17:56:34.244Z,11.47
2023-04-20T17:59:01.052Z,11.88
2023-04-20T18:01:28.094Z,11.62
2023-04-20T18:03:54.953Z,11.70
2023-04-20T18:06:21.736Z,11.41
2023-04-20T18:08:48.294Z,11.45
2023-04-20T18:11:14.839Z,11.16
2023-04-20T18:13:41.460Z,11.12
2023-04-20T18:16:08.398Z,11.49
2023-04-20T18:18:35.190Z,11.56
2023-04-20T18:21:01.807Z,11.16
2023-04-20T18:23:29.955Z,11.11
2023-04-20T18:25:56.776Z,11.10
2023-04-20T18:28:23.507Z,10.86
2023-04-20T18:30:50.133Z,10.30
2023-04-20T18:33:16.702Z,10.54
2023-04-20T18:35:43.826Z,10.32
2023-04-20T18:38:10.348Z,10.11
2023-04-20T18:40:36.959Z,10.35
2023-04-20T18:43:03.602Z,10.14
2023-04-20T18:45:30.881Z,10.21
2023-04-20T18:47:58.218Z,10.23
2023-04-20T18:50:24.915Z,10.13
2023-04-20T18:52:51.493Z,10.28
2023-04-20T18:55:18.149Z,10.30
2023-04-20T18:57:44.685Z,10.19
2023-04-20T19:00:11.748Z,10.13
2023-04-20T19:02:38.465Z,10.39
2023-04-20T19:05:05.545Z,10.43
2023-04-20T19:07:32.222Z,10.08
2023-04-20T19:09:58.924Z,10.40
2023-04-20T19:12:25.463Z,10.30
2023-04-20T19:14:52.145Z,10.29
2023-04-20T19:17:18.653Z,9.88
2023-04-20T19:19:45.943Z,10.25
2023-04-20T19:22:12.459Z,10.40
2023-04-20T19:24:39.110Z,10.00
2023-04-20T19:27:05.822Z,10.07
2023-04-20T19:29:35.288Z,10.13
2023-04-20T19:32:02.044Z,10.28
2023-04-20T19:34:28.763Z,10.03
2023-04-20T19:36:55.545Z,9.49
2023-04-20T19:39:22.219Z,10.12
2023-04-20T19:41:48.918Z,10.16
2023-04-20T19:44:15.843Z,10.14
2023-04-20T19:46:43.555Z,9.87
2023-04-20T19:49:10.275Z,9.71
2023-04-20T19:51:36.906Z,10.03
2023-04-20T19:54:04.825Z,9.92
2023-04-20T19:56:32.284Z,9.94
2023-04-20T19:58:58.987Z,9.95
2023-04-20T20:01:25.679Z,9.74
2023-04-20T20:03:52.606Z,9.77
2023-04-20T20:06:19.596Z,9.83
2023-04-20T20:08:46.537Z,9.64
2023-04-20T20:11:13.135Z,9.57
2023-04-20T20:13:40.010Z,9.59
2023-04-20T20:16:06.650Z,9.65
2023-04-20T20:18:33.373Z,9.59
2023-04-20T20:20:59.915Z,9.43
2023-04-20T20:23:26.708Z,9.41
2023-04-20T20:25:53.330Z,9.61
2023-04-20T20:28:21.127Z,9.44
2023-04-20T20:30:47.760Z,9.37
2023-04-20T20:33:14.570Z,9.30
2023-04-20T20:35:41.593Z,9.04
2023-04-20T20:38:11.038Z,9.41
2023-04-20T20:40:39.702Z,9.36
2023-04-20T20:43:06.696Z,9.49
2023-04-20T20:45:33.368Z,9.46
2023-04-20T20:48:00.505Z,9.23
2023-04-20T20:50:27.916Z,9.47
2023-04-20T20:52:54.721Z,9.46
2023-04-20T20:55:21.555Z,9.19
2023-04-20T20:57:48.153Z,9.25
2023-04-20T21:00:15.174Z,9.17
2023-04-20T21:02:43.129Z,9.16
2023-04-20T21:05:10.249Z,9.36
2023-04-20T21:07:36.856Z,9.50
2023-04-20T21:10:03.646Z,9.26
2023-04-20T21:12:30.454Z,9.31
2023-04-20T21:14:57.245Z,9.29
2023-04-20T21:17:23.953Z,9.27
2023-04-20T21:20:41.364Z,9.51
2023-04-20T21:23:08.671Z,9.26
2023-04-20T21:25:36.091Z,9.26
2023-04-20T21:28:02.660Z,9.19
2023-04-20T21:30:29.449Z,9.52
2023-04-20T21:32:56.146Z,9.44
2023-04-20T21:35:22.829Z,9.38
2023-04-20T21:37:49.378Z,9.55
2023-04-20T21:40:16.035Z,9.47
2023-04-20T21:42:42.648Z,9.44
2023-04-20T21:45:09.880Z,9.39
2023-04-20T21:47:36.535Z,9.60
2023-04-20T21:50:03.362Z,9.28
2023-04-20T21:52:31.005Z,9.49
2023-04-20T21:54:57.665Z,9.31
2023-04-20T21:57:24.278Z,9.04
2023-04-20T21:59:50.890Z,9.02
2023-04-20T22:02:17.619Z,9.10
2023-04-20T22:04:45.696Z,9.25
2023-04-20T22:07:12.442Z,9.05
2023-04-20T22:09:39.048Z,9.11
2023-04-20T22:12:06.556Z,8.95
2023-04-20T22:14:33.755Z,9.00
2023-04-20T22:17:01.792Z,9.01
2023-04-20T22:19:29.002Z,8.92
2023-04-20T22:21:55.675Z,8.84
2023-04-20T22:24:22.347Z,8.72
2023-04-20T22:26:49.117Z,8.89
2023-04-20T22:29:15.978Z,8.74
2023-04-20T22:31:42.760Z,8.50
2023-04-20T22:34:09.449Z,8.81
2023-04-20T22:36:36.125Z,8.82
2023-04-20T22:39:02.791Z,8.85
2023-04-20T22:41:31.020Z,8.70
2023-04-20T22:43:57.664Z,8.69
2023-04-20T22:46:25.584Z,8.36
2023-04-20T22:48:52.412Z,8.60
2023-04-20T22:51:18.977Z,8.64
2023-04-20T22:53:45.570Z,8.59
2023-04-20T22:56:12.171Z,8.67
2023-04-20T22:58:39.810Z,8.25
2023-04-20T23:01:06.451Z,8.69
2023-04-20T23:03:33.355Z,8.66
2023-04-20T23:06:00.203Z,8.59
2023-04-20T23:08:28.254Z,8.62
2023-04-20T23:10:55.194Z,8.42
2023-04-20T23:13:22.055Z,8.45
2023-04-20T23:15:51.559Z,8.14
2023-04-20T23:18:18.282Z,8.58
2023-04-20T23:20:45.008Z,8.48
2023-04-20T23:23:11.835Z,8.56
2023-04-20T23:25:38.689Z,8.55
2023-04-20T23:28:05.344Z,8.09
2023-04-20T23:30:32.012Z,7.96
2023-04-20T23:32:58.847Z,8.50
2023-04-20T23:35:25.508Z,8.35
2023-04-20T23:37:52.188Z,8.33
2023-04-20T23:40:18.851Z,8.37
2023-04-20T23:42:45.493Z,8.16
2023-04-20T23:45:12.313Z,8.39
2023-04-20T23:47:38.998Z,8.29
2023-04-20T23:50:06.652Z,8.13
2023-04-20T23:52:35.195Z,8.09
2023-04-20T23:55:01.762Z,8.19
2023-04-20T23:57:28.452Z,8.35
2023-04-20T23:59:55.604Z,7.82
